EGPB/LSI METAR and TAF weather

Enter ICAO airport designator
Station Type Date Time Source
EGPB METAR 2019/02/16 03:20 UTC NOAA

EGPB 160320Z AUTO 04010KT 8000 -RA BKN006/// OVC020/// 06/06 Q1006


Station Type Date Time Source
EGPB Decoded METAR 2019/02/16 03:20 UTC NOAA

Sumburgh Cape , United Kingdom (EGPB) 59-53N 001-18W
Feb 15, 2019 - 10:20 PM EST / 2019.02.16 0320 UTC
Wind: from the NE (040 degrees) at 12 MPH (10 KT):0
Visibility: 4 mile(s):0
Sky conditions: overcast
Weather: light rain
Temperature: 42 F (6 C)
Dew Point: 42 F (6 C)
Relative Humidity: 100%
Pressure (altimeter): 29.71 in. Hg (1006 hPa)
ob: EGPB 160320Z AUTO 04010KT 8000 -RA BKN006/// OVC020/// 06/06 Q1006
cycle: 3

Station Type Date Time Source
EGPB TAF UTC NOAA

Error!


Example: see airport list